| time (UTC) | temp C | wind direction | speed KPH | gust KPH | rain 1hr cm | rain 24hr cm | rain mn cm | humidity % | barometer mb |
| 20260503051509 | 8 | 208 | 6.4 | 8.0 | 0.00 | 0.00 | 0.00 | 61 | 1013.5 |
| 20260503051007 | 9 | 203 | 4.8 | 6.4 | 0.00 | 0.00 | 0.00 | 60 | 1013.7 |
| 20260503050502 | 10 | 205 | 6.4 | 8.0 | 0.00 | 0.00 | 0.00 | 58 | 1013.6 |
| 20260503050000 | 10 | 216 | 4.8 | 6.4 | 0.00 | 0.00 | 0.00 | 56 | 1013.9 |
| 20260503045457 | 10 | 227 | 4.8 | 6.4 | 0.00 | 0.00 | 0.00 | 58 | 1013.8 |
| 20260503044954 | 10 | 211 | 4.8 | 6.4 | 0.00 | 0.00 | 0.00 | 57 | 1013.8 |
| 20260503044450 | 10 | 217 | 6.4 | 8.0 | 0.00 | 0.00 | 0.00 | 55 | 1013.9 |
| 20260503043948 | 10 | 215 | 6.4 | 8.0 | 0.00 | 0.00 | 0.00 | 55 | 1013.9 |
| 20260503043444 | 10 | 200 | 9.7 | 9.7 | 0.00 | 0.00 | 0.00 | 54 | 1013.9 |
| 20260503042941 | 9 | 240 | 3.2 | 3.2 | 0.00 | 0.00 | 0.00 | 56 | 1014.0 |
| 20260503042437 | 9 | 253 | 3.2 | 3.2 | 0.00 | 0.00 | 0.00 | 58 | 1014.0 |
| 20260503041934 | 9 | 204 | 6.4 | 8.0 | 0.00 | 0.00 | 0.00 | 57 | 1014.0 |
| 20260503041431 | 9 | 209 | 6.4 | 8.0 | 0.00 | 0.00 | 0.00 | 57 | 1014.0 |
| 20260503040928 | 9 | 209 | 6.4 | 6.4 | 0.00 | 0.00 | 0.00 | 58 | 1014.1 |
| 20260503040426 | 9 | 209 | 6.4 | 8.0 | 0.00 | 0.00 | 0.00 | 57 | 1014.1 |
| 20260503035923 | 10 | 210 | 6.4 | 8.0 | 0.00 | 0.00 | 0.00 | 56 | 1014.1 |
| 20260503035420 | 10 | 220 | 4.8 | 6.4 | 0.00 | 0.00 | 0.00 | 55 | 1014.1 |
| 20260503034917 | 10 | 205 | 6.4 | 8.0 | 0.00 | 0.00 | 0.00 | 57 | 1014.2 |
| 20260503034415 | 10 | 213 | 6.4 | 8.0 | 0.00 | 0.00 | 0.00 | 57 | 1014.4 |
| 20260503033911 | 10 | 209 | 6.4 | 6.4 | 0.00 | 0.00 | 0.00 | 54 | 1014.3 |
| 20260503033409 | 10 | 250 | 3.2 | 3.2 | 0.00 | 0.00 | 0.00 | 55 | 1014.3 |
| 20260503032907 | 10 | 261 | 3.2 | 3.2 | 0.00 | 0.00 | 0.00 | 53 | 1014.4 |
| 20260503032405 | 10 | 211 | 4.8 | 6.4 | 0.00 | 0.00 | 0.00 | 52 | 1014.5 |
| 20260503031902 | 10 | 246 | 3.2 | 3.2 | 0.00 | 0.00 | 0.00 | 54 | 1014.7 |
| 20260503031400 | 10 | 217 | 4.8 | 6.4 | 0.00 | 0.00 | 0.00 | 56 | 1014.7 |
| 20260503030856 | 10 | 209 | 6.4 | 8.0 | 0.00 | 0.00 | 0.00 | 56 | 1014.8 |
| 20260503030353 | 10 | 220 | 6.4 | 6.4 | 0.00 | 0.00 | 0.00 | 54 | 1014.7 |
| 20260503025849 | 10 | 197 | 6.4 | 6.4 | 0.00 | 0.00 | 0.00 | 56 | 1014.7 |
| 20260503025347 | 10 | 197 | 4.8 | 6.4 | 0.00 | 0.00 | 0.00 | 54 | 1014.9 |
| 20260503024844 | 10 | 197 | 3.2 | 3.2 | 0.00 | 0.00 | 0.00 | 52 | 1015.1 |
| 20260503024340 | 10 | 197 | 4.8 | 6.4 | 0.00 | 0.00 | 0.00 | 51 | 1015.0 |
| 20260503023837 | 10 | 197 | 3.2 | 3.2 | 0.00 | 0.00 | 0.00 | 50 | 1014.9 |
| 20260503023335 | 10 | 208 | 4.8 | 6.4 | 0.00 | 0.00 | 0.00 | 52 | 1014.9 |
| 20260503022832 | 10 | 208 | 6.4 | 6.4 | 0.00 | 0.00 | 0.00 | 48 | 1014.9 |
| 20260503022331 | 9 | 208 | 3.2 | 3.2 | 0.00 | 0.00 | 0.00 | 57 | 1015.1 |
| 20260503021828 | 10 | 208 | 3.2 | 3.2 | 0.00 | 0.00 | 0.00 | 54 | 1015.2 |
| 20260503021325 | 10 | 208 | 1.6 | 1.6 | 0.00 | 0.00 | 0.00 | 56 | 1015.1 |
| 20260503020822 | 9 | 245 | 3.2 | 3.2 | 0.00 | 0.00 | 0.00 | 56 | 1015.2 |
| 20260503020320 | 10 | 279 | 1.6 | 1.6 | 0.00 | 0.00 | 0.00 | 57 | 1015.3 |
| 20260503015816 | 10 | 276 | 1.6 | 1.6 | 0.00 | 0.00 | 0.00 | 54 | 1015.2 |
| 20260503015313 | 10 | 275 | 1.6 | 1.6 | 0.00 | 0.00 | 0.00 | 56 | 1015.4 |
| 20260503014809 | 10 | 279 | 1.6 | 1.6 | 0.00 | 0.00 | 0.00 | 54 | 1015.1 |
| 20260503014307 | 11 | 217 | 3.2 | 3.2 | 0.00 | 0.00 | 0.00 | 51 | 1015.1 |
| 20260503013804 | 11 | 217 | 6.4 | 6.4 | 0.00 | 0.00 | 0.00 | 49 | 1015.1 |
| 20260503013301 | 12 | 267 | 3.2 | 3.2 | 0.00 | 0.00 | 0.00 | 50 | 1015.2 |
| 20260503012758 | 12 | 261 | 3.2 | 3.2 | 0.00 | 0.00 | 0.00 | 44 | 1015.3 |
| 20260503012255 | 12 | 251 | 3.2 | 3.2 | 0.00 | 0.00 | 0.00 | 45 | 1015.3 |
| 20260503011752 | 12 | 254 | 3.2 | 3.2 | 0.00 | 0.00 | 0.00 | 43 | 1015.4 |
| 20260503011249 | 12 | 258 | 1.6 | 3.2 | 0.00 | 0.00 | 0.00 | 44 | 1015.4 |
| 20260503010745 | 12 | 258 | 3.2 | 3.2 | 0.00 | 0.00 | 0.00 | 44 | 1015.4 |
| 20260503010242 | 13 | 247 | 3.2 | 3.2 | 0.00 | 0.00 | 0.00 | 43 | 1015.5 |
| 20260503005740 | 13 | 256 | 1.6 | 3.2 | 0.00 | 0.00 | 0.00 | 42 | 1015.3 |
| 20260503005237 | 13 | 317 | 1.6 | 1.6 | 0.00 | 0.00 | 0.00 | 40 | 1015.6 |
| 20260503004733 | 13 | 261 | 4.8 | 6.4 | 0.00 | 0.00 | 0.00 | 39 | 1015.4 |
| 20260503004231 | 13 | 291 | 3.2 | 3.2 | 0.00 | 0.00 | 0.00 | 39 | 1015.7 |
| 20260503003728 | 13 | 277 | 3.2 | 3.2 | 0.00 | 0.00 | 0.00 | 39 | 1015.8 |
| 20260503003225 | 13 | 293 | 1.6 | 1.6 | 0.00 | 0.00 | 0.00 | 39 | 1015.8 |
| 20260503002722 | 13 | 249 | 6.4 | 8.0 | 0.00 | 0.00 | 0.00 | 38 | 1015.8 |
| 20260503002219 | 13 | 296 | 3.2 | 3.2 | 0.00 | 0.00 | 0.00 | 38 | 1016.0 |
| 20260503001715 | 13 | 269 | 4.8 | 8.0 | 0.00 | 0.00 | 0.00 | 38 | 1015.7 |
| 20260503001212 | 13 | 260 | 4.8 | 6.4 | 0.00 | 0.00 | 0.00 | 39 | 1015.8 |
| 20260503000710 | 14 | 280 | 9.7 | 12.9 | 0.00 | 0.00 | 0.00 | 38 | 1015.7 |
| 20260503000207 | 14 | 314 | 4.8 | 6.4 | 0.00 | 0.00 | 0.00 | 36 | 1015.7 |
| 20260502235703 | 14 | 266 | 12.9 | 17.7 | 0.00 | 0.00 | 0.00 | 37 | 1015.7 |
| 20260502235201 | 15 | 262 | 4.8 | 9.7 | 0.00 | 0.00 | 0.00 | 38 | 1015.8 |
| 20260502234657 | 15 | 327 | 12.9 | 17.7 | 0.00 | 0.00 | 0.00 | 36 | 1016.0 |
| 20260502234155 | 14 | 252 | 8.0 | 12.9 | 0.00 | 0.00 | 0.00 | 37 | 1016.2 |
| 20260502233650 | 15 | 315 | 4.8 | 6.4 | 0.00 | 0.00 | 0.00 | 36 | 1016.0 |
| 20260502233147 | 15 | 308 | 6.4 | 8.0 | 0.00 | 0.00 | 0.00 | 35 | 1016.2 |
| 20260502232643 | 15 | 299 | 4.8 | 6.4 | 0.00 | 0.00 | 0.00 | 38 | 1016.0 |
| 20260502232141 | 15 | 298 | 9.7 | 9.7 | 0.00 | 0.00 | 0.00 | 38 | 1016.0 |
| 20260502231637 | 15 | 285 | 8.0 | 12.9 | 0.00 | 0.00 | 0.00 | 35 | 1016.1 |
| 20260502231135 | 15 | 273 | 6.4 | 8.0 | 0.00 | 0.00 | 0.00 | 38 | 1015.8 |
| 20260502230633 | 15 | 271 | 11.3 | 14.5 | 0.00 | 0.00 | 0.00 | 35 | 1016.2 |
| 20260502230131 | 15 | 330 | 9.7 | 12.9 | 0.00 | 0.00 | 0.00 | 35 | 1016.4 |
| 20260502225626 | 15 | 263 | 8.0 | 8.0 | 0.00 | 0.00 | 0.00 | 34 | 1016.4 |
| 20260502225124 | 15 | 268 | 8.0 | 9.7 | 0.00 | 0.00 | 0.00 | 33 | 1016.3 |
| 20260502224620 | 15 | 308 | 14.5 | 20.9 | 0.00 | 0.00 | 0.00 | 35 | 1016.3 |
| 20260502224117 | 15 | 233 | 4.8 | 8.0 | 0.00 | 0.00 | 0.00 | 35 | 1016.2 |
| 20260502223615 | 16 | 290 | 6.4 | 8.0 | 0.00 | 0.00 | 0.00 | 35 | 1016.4 |
| 20260502223113 | 15 | 285 | 6.4 | 8.0 | 0.00 | 0.00 | 0.00 | 36 | 1016.4 |
| 20260502222610 | 15 | 292 | 14.5 | 17.7 | 0.00 | 0.00 | 0.00 | 35 | 1016.3 |
| 20260502222106 | 15 | 288 | 11.3 | 12.9 | 0.00 | 0.00 | 0.00 | 33 | 1016.5 |
| 20260502221602 | 15 | 243 | 17.7 | 20.9 | 0.00 | 0.00 | 0.00 | 33 | 1016.3 |
| 20260502221100 | 15 | 263 | 19.3 | 29.0 | 0.00 | 0.00 | 0.00 | 34 | 1016.6 |
| 20260502220555 | 15 | 326 | 14.5 | 16.1 | 0.00 | 0.00 | 0.00 | 35 | 1016.6 |
| 20260502220052 | 15 | 273 | 9.7 | 12.9 | 0.00 | 0.00 | 0.00 | 34 | 1016.7 |
| 20260502215549 | 15 | 277 | 6.4 | 8.0 | 0.00 | 0.00 | 0.00 | 32 | 1016.5 |
| 20260502215046 | 15 | 206 | 12.9 | 17.7 | 0.00 | 0.00 | 0.00 | 33 | 1016.7 |
| 20260502214543 | 15 | 226 | 17.7 | 22.5 | 0.00 | 0.00 | 0.00 | 33 | 1016.9 |
| 20260502214041 | 15 | 271 | 14.5 | 16.1 | 0.00 | 0.00 | 0.00 | 34 | 1016.8 |
| 20260502213537 | 15 | 241 | 14.5 | 17.7 | 0.00 | 0.00 | 0.00 | 31 | 1016.7 |
| 20260502213035 | 15 | 255 | 6.4 | 8.0 | 0.00 | 0.00 | 0.00 | 34 | 1016.8 |
| 20260502212534 | 15 | 272 | 3.2 | 6.4 | 0.00 | 0.00 | 0.00 | 38 | 1017.1 |
| 20260502212031 | 15 | 266 | 14.5 | 17.7 | 0.00 | 0.00 | 0.00 | 31 | 1016.8 |
| 20260502211526 | 15 | 248 | 11.3 | 12.9 | 0.00 | 0.00 | 0.00 | 33 | 1016.8 |
| 20260502211024 | 15 | 253 | 16.1 | 22.5 | 0.00 | 0.00 | 0.00 | 32 | 1017.0 |
| 20260502210521 | 15 | 257 | 11.3 | 17.7 | 0.00 | 0.00 | 0.00 | 32 | 1017.0 |
| 20260502210018 | 15 | 236 | 14.5 | 17.7 | 0.00 | 0.00 | 0.00 | 34 | 1017.2 |
| 20260502205514 | 15 | 277 | 9.7 | 14.5 | 0.00 | 0.00 | 0.00 | 32 | 1017.2 |
| 20260502205011 | 14 | 259 | 6.4 | 6.4 | 0.00 | 0.00 | 0.00 | 35 | 1017.4 |
| 20260502204508 | 13 | 265 | 3.2 | 6.4 | 0.00 | 0.00 | 0.00 | 35 | 1017.4 |
| 20260502204006 | 15 | 300 | 9.7 | 14.5 | 0.00 | 0.00 | 0.00 | 32 | 1017.5 |
| 20260502203503 | 15 | 242 | 19.3 | 24.1 | 0.00 | 0.00 | 0.00 | 31 | 1017.3 |
| 20260502203000 | 15 | 276 | 6.4 | 8.0 | 0.00 | 0.00 | 0.00 | 33 | 1017.3 |
| 20260502202456 | 15 | 244 | 17.7 | 24.1 | 0.00 | 0.00 | 0.00 | 33 | 1017.5 |
| 20260502201954 | 15 | 312 | 4.8 | 6.4 | 0.00 | 0.00 | 0.00 | 32 | 1017.5 |
| 20260502201450 | 15 | 272 | 9.7 | 12.9 | 0.00 | 0.00 | 0.00 | 37 | 1017.7 |
| 20260502200947 | 14 | 281 | 17.7 | 22.5 | 0.00 | 0.00 | 0.00 | 32 | 1017.7 |
| 20260502200442 | 15 | 293 | 9.7 | 16.1 | 0.00 | 0.00 | 0.00 | 36 | 1017.8 |
| 20260502195940 | 14 | 218 | 17.7 | 25.7 | 0.00 | 0.00 | 0.00 | 32 | 1017.9 |
| 20260502195437 | 15 | 258 | 12.9 | 17.7 | 0.00 | 0.00 | 0.00 | 33 | 1017.9 |
| 20260502194934 | 15 | 280 | 6.4 | 8.0 | 0.00 | 0.00 | 0.00 | 38 | 1018.1 |
| 20260502194431 | 15 | 281 | 8.0 | 12.9 | 0.00 | 0.00 | 0.00 | 37 | 1018.1 |
| 20260502193926 | 14 | 229 | 9.7 | 14.5 | 0.00 | 0.00 | 0.00 | 36 | 1018.1 |
| 20260502193424 | 15 | 248 | 11.3 | 16.1 | 0.00 | 0.00 | 0.00 | 33 | 1018.3 |
| 20260502192919 | 14 | 199 | 14.5 | 24.1 | 0.00 | 0.00 | 0.00 | 31 | 1018.5 |
| 20260502192416 | 15 | 228 | 17.7 | 22.5 | 0.00 | 0.00 | 0.00 | 33 | 1018.6 |
| 20260502191913 | 15 | 287 | 14.5 | 16.1 | 0.00 | 0.00 | 0.00 | 36 | 1018.6 |
| 20260502191411 | 14 | 251 | 12.9 | 16.1 | 0.00 | 0.00 | 0.00 | 36 | 1018.5 |
| 20260502190909 | 14 | 256 | 17.7 | 25.7 | 0.00 | 0.00 | 0.00 | 33 | 1018.6 |
| 20260502190405 | 13 | 306 | 11.3 | 14.5 | 0.00 | 0.00 | 0.00 | 35 | 1018.6 |
| 20260502185901 | 15 | 322 | 8.0 | 8.0 | 0.00 | 0.00 | 0.00 | 35 | 1018.6 |
| 20260502185357 | 14 | 294 | 14.5 | 17.7 | 0.00 | 0.00 | 0.00 | 34 | 1018.7 |
| 20260502184855 | 13 | 262 | 6.4 | 8.0 | 0.00 | 0.00 | 0.00 | 34 | 1019.0 |
| 20260502184350 | 14 | 237 | 11.3 | 14.5 | 0.00 | 0.00 | 0.00 | 35 | 1018.9 |
| 20260502183847 | 13 | 286 | 6.4 | 6.4 | 0.00 | 0.00 | 0.00 | 42 | 1019.1 |
| 20260502183343 | 13 | 245 | 11.3 | 14.5 | 0.00 | 0.00 | 0.00 | 38 | 1019.0 |
| 20260502182838 | 13 | 273 | 8.0 | 9.7 | 0.00 | 0.00 | 0.00 | 38 | 1019.1 |
| 20260502182333 | 13 | 242 | 16.1 | 17.7 | 0.00 | 0.00 | 0.00 | 35 | 1019.3 |
| 20260502181830 | 13 | 226 | 16.1 | 20.9 | 0.00 | 0.00 | 0.00 | 35 | 1019.2 |
| 20260502181330 | 13 | 304 | 3.2 | 3.2 | 0.00 | 0.00 | 0.00 | 35 | 1019.2 |
| 20260502180827 | 14 | 329 | 20.9 | 25.7 | 0.00 | 0.00 | 0.00 | 38 | 1019.1 |
| 20260502180324 | 13 | 256 | 3.2 | 6.4 | 0.00 | 0.00 | 0.00 | 37 | 1019.3 |
| 20260502170238 | 13 | 294 | 12.9 | 22.5 | 0.00 | 0.00 | 0.00 | 37 | 1020.0 |
| 20260502164225 | 12 | 317 | 19.3 | 24.1 | 0.00 | 0.00 | 0.00 | 38 | 1020.1 |
| 20260502163720 | 13 | 231 | 8.0 | 12.9 | 0.00 | 0.00 | 0.00 | 37 | 1020.0 |
| 20260502163217 | 12 | 338 | 6.4 | 8.0 | 0.00 | 0.00 | 0.00 | 42 | 1020.2 |
| 20260502162714 | 12 | 325 | 11.3 | 16.1 | 0.00 | 0.00 | 0.00 | 39 | 1020.4 |
| 20260502162211 | 12 | 280 | 14.5 | 17.7 | 0.00 | 0.00 | 0.00 | 35 | 1020.2 |
| 20260502161708 | 12 | 284 | 8.0 | 9.7 | 0.00 | 0.00 | 0.00 | 39 | 1020.3 |
| 20260502161204 | 12 | 357 | 9.7 | 20.9 | 0.00 | 0.00 | 0.00 | 37 | 1020.7 |
| 20260502160703 | 12 | 316 | 17.7 | 22.5 | 0.00 | 0.00 | 0.00 | 38 | 1020.5 |
| 20260502160202 | 12 | 234 | 12.9 | 16.1 | 0.00 | 0.00 | 0.00 | 37 | 1020.5 |
| 20260502152115 | 11 | 301 | 11.3 | 14.5 | 0.00 | 0.00 | 0.00 | 38 | 1020.9 |
| 20260502151612 | 11 | 309 | 14.5 | 16.1 | 0.00 | 0.00 | 0.00 | 39 | 1020.8 |
| 20260502151109 | 12 | 321 | 3.2 | 3.2 | 0.00 | 0.00 | 0.00 | 43 | 1020.8 |
| 20260502150606 | 11 | 273 | 3.2 | 3.2 | 0.00 | 0.00 | 0.00 | 43 | 1021.1 |
| 20260502130451 | 5 | 205 | 6.4 | 8.0 | 0.00 | 0.00 | 0.00 | 61 | 1021.8 |
| 20260502123434 | 5 | 215 | 9.7 | 12.9 | 0.00 | 0.00 | 0.00 | 61 | 1021.8 |
| 20260502122931 | 5 | 211 | 6.4 | 6.4 | 0.00 | 0.00 | 0.00 | 67 | 1021.8 |
| 20260502122427 | 4 | 206 | 6.4 | 8.0 | 0.00 | 0.00 | 0.00 | 68 | 1021.8 |
| 20260502121925 | 4 | 188 | 6.4 | 6.4 | 0.00 | 0.00 | 0.00 | 69 | 1021.8 |
| 20260502121422 | 4 | 197 | 8.0 | 9.7 | 0.00 | 0.00 | 0.00 | 67 | 1021.5 |
| 20260502120920 | 3 | 191 | 8.0 | 9.7 | 0.00 | 0.00 | 0.00 | 66 | 1021.6 |
| 20260502120416 | 3 | 196 | 4.8 | 8.0 | 0.00 | 0.00 | 0.00 | 70 | 1021.5 |
| 20260502115913 | 2 | 207 | 6.4 | 6.4 | 0.00 | 0.00 | 0.00 | 73 | 1021.6 |
| 20260502115410 | 1 | 273 | 1.6 | 1.6 | 0.00 | 0.00 | 0.00 | 81 | 1021.6 |
| 20260502114906 | 1 | 310 | 0.0 | 0.0 | 0.00 | 0.00 | 0.00 | 78 | 1021.6 |
| 20260502114403 | 1 | 325 | 0.0 | 0.0 | 0.00 | 0.00 | 0.00 | 73 | 1021.6 |
| 20260502113900 | 1 | 325 | 0.0 | 0.0 | 0.00 | 0.00 | 0.00 | 73 | 1021.6 |
| 20260502113358 | 1 | 325 | 0.0 | 0.0 | 0.00 | 0.00 | 0.00 | 69 | 1021.6 |
| 20260502112856 | 2 | 317 | 0.0 | 0.0 | 0.00 | 0.00 | 0.00 | 69 | 1021.6 |
| 20260502112353 | 2 | 120 | 3.2 | 3.2 | 0.00 | 0.00 | 0.00 | 63 | 1021.4 |
| 20260502111850 | 2 | 47 | 1.6 | 3.2 | 0.00 | 0.00 | 0.00 | 61 | 1021.8 |
| 20260502111348 | 2 | 5 | 1.6 | 1.6 | 0.00 | 0.00 | 0.00 | 61 | 1021.5 |
| 20260502110845 | 2 | 16 | 1.6 | 1.6 | 0.00 | 0.00 | 0.00 | 63 | 1021.6 |
| 20260502110343 | 2 | 274 | 1.6 | 1.6 | 0.00 | 0.00 | 0.00 | 68 | 1021.6 |
| 20260502105840 | 2 | 290 | 1.6 | 1.6 | 0.00 | 0.00 | 0.00 | 68 | 1021.6 |
| 20260502105337 | 2 | 308 | 0.0 | 1.6 | 0.00 | 0.00 | 0.00 | 70 | 1021.9 |
| 20260502104835 | 2 | 65 | 1.6 | 1.6 | 0.00 | 0.00 | 0.00 | 58 | 1021.8 |
| 20260502104332 | 2 | 22 | 1.6 | 1.6 | 0.00 | 0.00 | 0.00 | 59 | 1021.8 |
| 20260502103829 | 2 | 352 | 1.6 | 1.6 | 0.00 | 0.00 | 0.00 | 71 | 1021.9 |
| 20260502103326 | 2 | 320 | 0.0 | 0.0 | 0.00 | 0.00 | 0.00 | 69 | 1021.8 |
| 20260502102824 | 2 | 318 | 0.0 | 0.0 | 0.00 | 0.00 | 0.00 | 70 | 1021.8 |
| 20260502102320 | 2 | 323 | 0.0 | 0.0 | 0.00 | 0.00 | 0.00 | 72 | 1021.8 |
| 20260502101818 | 2 | 315 | 0.0 | 1.6 | 0.00 | 0.00 | 0.00 | 65 | 1022.0 |
| 20260502101316 | 2 | 335 | 0.0 | 0.0 | 0.00 | 0.00 | 0.00 | 66 | 1022.0 |
| 20260502100814 | 2 | 333 | 0.0 | 0.0 | 0.00 | 0.00 | 0.00 | 68 | 1021.8 |
| 20260502100313 | 2 | 324 | 0.0 | 0.0 | 0.00 | 0.00 | 0.00 | 76 | 1021.9 |
| 20260502091247 | 2 | 321 | 0.0 | 0.0 | 0.00 | 0.00 | 0.00 | 66 | 1022.1 |
| 20260502090744 | 1 | 321 | 0.0 | 0.0 | 0.00 | 0.00 | 0.00 | 67 | 1022.1 |
| 20260502090240 | 1 | 321 | 0.0 | 0.0 | 0.00 | 0.00 | 0.00 | 72 | 1022.1 |
| 20260502071141 | 1 | 323 | 0.0 | 0.0 | 0.00 | 0.00 | 0.00 | 84 | 1022.2 |
| 20260502070639 | 2 | 323 | 0.0 | 0.0 | 0.00 | 0.00 | 0.00 | 84 | 1022.4 |
| 20260502070137 | 2 | 323 | 0.0 | 0.0 | 0.00 | 0.00 | 0.00 | 84 | 1022.4 |
| 20260502065635 | 2 | 323 | 0.0 | 0.0 | 0.00 | 0.00 | 0.00 | 83 | 1022.4 |
| 20260502065132 | 2 | 323 | 0.0 | 0.0 | 0.00 | 0.00 | 0.00 | 81 | 1022.4 |
| 20260502064631 | 2 | 323 | 0.0 | 0.0 | 0.00 | 0.00 | 0.00 | 81 | 1022.4 |
| 20260502064128 | 1 | 323 | 0.0 | 0.0 | 0.00 | 0.00 | 0.00 | 76 | 1022.4 |
| 20260502063625 | 1 | 323 | 0.0 | 0.0 | 0.00 | 0.00 | 0.00 | 73 | 1022.4 |
| 20260502063123 | 1 | 323 | 0.0 | 0.0 | 0.00 | 0.00 | 0.00 | 75 | 1022.6 |
| 20260502062620 | 2 | 323 | 0.0 | 0.0 | 0.00 | 0.00 | 0.00 | 77 | 1022.3 |
| 20260502062117 | 2 | 323 | 0.0 | 0.0 | 0.00 | 0.00 | 0.00 | 75 | 1022.4 |
| 20260502061615 | 2 | 323 | 0.0 | 0.0 | 0.00 | 0.00 | 0.00 | 75 | 1022.4 |
| 20260502061113 | 2 | 323 | 0.0 | 0.0 | 0.00 | 0.00 | 0.00 | 79 | 1022.4 |
| 20260502060607 | 2 | 323 | 0.0 | 0.0 | 0.00 | 0.00 | 0.00 | 66 | 1022.4 |
| 20260502060104 | 2 | 323 | 0.0 | 0.0 | 0.00 | 0.00 | 0.00 | 66 | 1022.5 |
| 20260502055602 | 2 | 323 | 0.0 | 0.0 | 0.00 | 0.00 | 0.00 | 72 | 1022.5 |
| 20260502055100 | 2 | 323 | 0.0 | 0.0 | 0.00 | 0.00 | 0.00 | 62 | 1022.3 |
| 20260502054559 | 2 | 323 | 0.0 | 0.0 | 0.00 | 0.00 | 0.00 | 67 | 1022.4 |
| 20260502054055 | 2 | 322 | 0.0 | 0.0 | 0.00 | 0.00 | 0.00 | 62 | 1022.4 |
| 20260502053552 | 2 | 319 | 0.0 | 0.0 | 0.00 | 0.00 | 0.00 | 70 | 1022.4 |
| 20260502053050 | 1 | 323 | 0.0 | 0.0 | 0.00 | 0.00 | 0.00 | 68 | 1022.3 |
| 20260502052548 | 1 | 323 | 0.0 | 0.0 | 0.00 | 0.00 | 0.00 | 65 | 1022.4 |
| 20260502052046 | 1 | 323 | 0.0 | 0.0 | 0.00 | 0.00 | 0.00 | 69 | 1022.5 |